createdAt,value
2023-03-01T00:00:16.891Z,101923.02
2023-03-01T00:03:09.342Z,101921.23
2023-03-01T00:05:48.100Z,101926.77
2023-03-01T00:08:20.508Z,101926.20
2023-03-01T00:11:01.718Z,101927.70
2023-03-01T00:13:34.932Z,101922.04
2023-03-01T00:16:14.084Z,101916.16
2023-03-01T00:18:46.627Z,101915.59
2023-03-01T00:21:19.888Z,101913.19
2023-03-01T00:23:52.914Z,101906.67
2023-03-01T00:26:26.760Z,101899.09
2023-03-01T00:28:59.502Z,101899.77
2023-03-01T00:31:33.887Z,101899.14
2023-03-01T00:34:07.647Z,101896.60
2023-03-01T00:36:41.050Z,101896.57
2023-03-01T00:39:15.491Z,101891.42
2023-03-01T00:41:47.947Z,101888.26
2023-03-01T00:44:20.306Z,101887.08
2023-03-01T00:46:52.632Z,101885.38
2023-03-01T00:49:28.710Z,101884.29
2023-03-01T00:52:01.009Z,101880.67
2023-03-01T00:54:33.473Z,101877.83
2023-03-01T00:57:05.807Z,101877.83
2023-03-01T00:59:38.069Z,101876.92
2023-03-01T01:02:10.441Z,101876.55
2023-03-01T01:04:42.992Z,101878.06
2023-03-01T01:07:15.303Z,101873.25
2023-03-01T01:09:47.787Z,101866.74
2023-03-01T01:12:20.245Z,101859.66
2023-03-01T01:14:52.510Z,101852.41
2023-03-01T01:17:25.005Z,101850.77
2023-03-01T01:19:57.390Z,101851.38
2023-03-01T01:22:29.960Z,101851.59
2023-03-01T01:25:02.444Z,101835.95
2023-03-01T01:27:34.797Z,101842.48
2023-03-01T01:30:09.233Z,101840.90
2023-03-01T01:32:41.475Z,101841.77
2023-03-01T01:35:13.918Z,101837.51
2023-03-01T01:37:46.350Z,101838.92
2023-03-01T01:40:19.049Z,101841.30
2023-03-01T01:42:51.430Z,101842.55
2023-03-01T01:45:37.053Z,101836.27
2023-03-01T01:48:16.447Z,101834.80
2023-03-01T01:50:50.860Z,101832.81
2023-03-01T01:53:23.969Z,101833.81
2023-03-01T01:56:00.959Z,101828.70
2023-03-01T01:58:34.142Z,101819.92
2023-03-01T02:01:07.474Z,101822.64
2023-03-01T02:03:45.432Z,101820.13
2023-03-01T02:06:24.431Z,101818.68
2023-03-01T02:08:59.574Z,101820.32
2023-03-01T02:11:34.921Z,101821.98
2023-03-01T02:14:07.631Z,101811.78
2023-03-01T02:16:40.658Z,101806.13
2023-03-01T02:19:21.667Z,101801.36
2023-03-01T02:22:02.896Z,101798.84
2023-03-01T02:24:43.224Z,101795.96
2023-03-01T02:27:17.383Z,101794.28
2023-03-01T02:29:50.237Z,101791.89
2023-03-01T02:32:26.452Z,101791.73
2023-03-01T02:35:00.170Z,101788.54
2023-03-01T02:37:32.634Z,101787.85
2023-03-01T02:40:12.688Z,101782.31
2023-03-01T02:42:52.051Z,101785.38
2023-03-01T02:45:25.357Z,101783.75
2023-03-01T02:47:59.130Z,101789.21
2023-03-01T02:50:55.378Z,101788.78
2023-03-01T02:53:37.061Z,101790.36
2023-03-01T02:56:14.007Z,101785.70
2023-03-01T02:58:52.094Z,101779.29
2023-03-01T03:01:37.866Z,101781.80
2023-03-01T03:04:12.528Z,101782.55
2023-03-01T03:06:45.143Z,101781.25
2023-03-01T03:09:18.571Z,101779.42
2023-03-01T03:11:50.914Z,101773.16
2023-03-01T03:14:23.358Z,101776.20
2023-03-01T03:16:55.678Z,101777.58
2023-03-01T03:19:28.146Z,101782.09
2023-03-01T03:22:00.472Z,101781.40
2023-03-01T03:24:39.425Z,101785.54
2023-03-01T03:27:12.036Z,101781.98
2023-03-01T03:29:44.338Z,101776.32
2023-03-01T03:32:16.777Z,101774.20
2023-03-01T03:34:50.329Z,101774.73
2023-03-01T03:37:42.441Z,101777.52
2023-03-01T03:40:16.591Z,101776.95
2023-03-01T03:42:49.316Z,101776.39
2023-03-01T03:45:22.008Z,101784.02
2023-03-01T03:47:54.389Z,101785.71
2023-03-01T03:50:26.761Z,101780.89
2023-03-01T03:53:02.259Z,101783.19
2023-03-01T03:55:34.947Z,101781.13
2023-03-01T03:58:08.762Z,101786.95
2023-03-01T04:00:43.647Z,101787.75
2023-03-01T04:03:18.000Z,101784.91
2023-03-01T04:05:51.862Z,101783.80
2023-03-01T04:08:25.265Z,101777.38
2023-03-01T04:11:22.801Z,101780.81
2023-03-01T04:13:57.514Z,101781.08
2023-03-01T04:16:30.797Z,101785.29
2023-03-01T04:19:03.881Z,101783.86
2023-03-01T04:21:37.287Z,101783.88
2023-03-01T04:24:10.826Z,101789.46
2023-03-01T04:26:43.050Z,101794.16
2023-03-01T04:29:15.286Z,101791.98
2023-03-01T04:31:47.762Z,101794.44
2023-03-01T04:34:20.175Z,101790.50
2023-03-01T04:36:52.654Z,101792.15
2023-03-01T04:39:25.105Z,101791.48
2023-03-01T04:41:58.250Z,101792.23
2023-03-01T04:44:30.755Z,101792.34
2023-03-01T04:47:03.063Z,101791.73
2023-03-01T04:49:35.636Z,101791.55
2023-03-01T04:52:08.782Z,101795.02
2023-03-01T04:54:41.347Z,101796.59
2023-03-01T04:57:13.655Z,101798.77
2023-03-01T04:59:46.132Z,101799.59
2023-03-01T05:02:18.379Z,101805.02
2023-03-01T05:04:50.745Z,101805.14
2023-03-01T05:07:23.252Z,101802.78
2023-03-01T05:09:55.602Z,101808.17
2023-03-01T05:12:27.991Z,101807.69
2023-03-01T05:15:00.733Z,101803.91
2023-03-01T05:17:33.112Z,101805.40
2023-03-01T05:20:09.740Z,101811.87
2023-03-01T05:22:42.525Z,101814.00
2023-03-01T05:25:15.205Z,101817.32
2023-03-01T05:27:47.601Z,101822.16
2023-03-01T05:30:21.097Z,101825.08
2023-03-01T05:32:57.022Z,101828.60
2023-03-01T05:35:30.699Z,101829.20
2023-03-01T05:38:06.732Z,101829.08
2023-03-01T05:40:37.532Z,101824.12
2023-03-01T05:43:10.115Z,101824.33
2023-03-01T05:45:43.622Z,101822.92
2023-03-01T05:48:16.600Z,101822.55
2023-03-01T05:50:49.423Z,101830.96
2023-03-01T05:53:23.426Z,101834.16
2023-03-01T05:55:55.732Z,101840.23
2023-03-01T05:58:28.120Z,101842.14
2023-03-01T06:01:00.409Z,101842.54
2023-03-01T06:03:32.828Z,101842.88
2023-03-01T06:06:05.657Z,101842.94
2023-03-01T06:08:38.079Z,101840.20
2023-03-01T06:11:10.489Z,101840.73
2023-03-01T06:13:43.177Z,101837.95
2023-03-01T06:16:16.798Z,101836.65
2023-03-01T06:18:49.091Z,101838.05
2023-03-01T06:21:21.461Z,101836.30
2023-03-01T06:23:54.062Z,101835.86
2023-03-01T06:26:26.379Z,101835.38
2023-03-01T06:28:58.705Z,101828.23
2023-03-01T06:31:31.199Z,101831.52
2023-03-01T06:34:04.314Z,101830.80
2023-03-01T06:36:36.758Z,101829.39
2023-03-01T06:39:10.174Z,101831.89
2023-03-01T06:41:42.457Z,101825.80
2023-03-01T06:44:14.784Z,101825.13
2023-03-01T06:46:47.344Z,101822.55
2023-03-01T06:49:20.946Z,101822.63
2023-03-01T06:51:53.362Z,101820.97
2023-03-01T06:54:25.937Z,101826.24
2023-03-01T06:56:58.463Z,101826.89
2023-03-01T06:59:30.992Z,101830.83
2023-03-01T07:02:03.310Z,101829.01
2023-03-01T07:04:35.655Z,101824.48
2023-03-01T07:07:08.345Z,101821.60
2023-03-01T07:09:41.161Z,101819.48
2023-03-01T07:12:13.441Z,101815.17
2023-03-01T07:14:47.846Z,101814.33
2023-03-01T07:17:20.833Z,101813.64
2023-03-01T07:19:53.210Z,101813.59
2023-03-01T07:22:25.586Z,101812.58
2023-03-01T07:24:58.044Z,101814.57
2023-03-01T07:27:30.415Z,101811.54
2023-03-01T07:30:02.904Z,101812.60
2023-03-01T07:32:35.394Z,101816.59
2023-03-01T07:35:09.020Z,101816.95
2023-03-01T07:37:41.214Z,101818.13
2023-03-01T07:40:15.312Z,101824.17
2023-03-01T07:42:47.828Z,101825.06
2023-03-01T07:45:20.420Z,101821.91
2023-03-01T07:47:54.207Z,101824.69
2023-03-01T07:50:26.778Z,101825.57
2023-03-01T07:52:59.136Z,101823.95
2023-03-01T07:55:31.329Z,101824.95
2023-03-01T07:58:03.660Z,101819.91
2023-03-01T08:00:35.840Z,101820.51
2023-03-01T08:03:08.143Z,101817.02
2023-03-01T08:05:40.593Z,101815.30
2023-03-01T08:08:13.010Z,101814.91
2023-03-01T08:10:45.293Z,101811.12
2023-03-01T08:13:17.498Z,101811.02
2023-03-01T08:15:49.650Z,101807.87
2023-03-01T08:18:23.226Z,101806.48
2023-03-01T08:20:55.454Z,101805.62
2023-03-01T08:23:27.829Z,101803.88
2023-03-01T08:26:08.197Z,101808.11
2023-03-01T08:28:41.202Z,101810.73
2023-03-01T08:31:21.924Z,101812.79
2023-03-01T08:33:57.663Z,101809.65
2023-03-01T08:36:31.839Z,101811.44
2023-03-01T08:39:04.632Z,101811.12
2023-03-01T08:41:36.964Z,101813.56
2023-03-01T08:44:10.086Z,101809.49
2023-03-01T08:46:43.872Z,101812.55
2023-03-01T08:49:17.992Z,101810.16
2023-03-01T08:51:50.860Z,101816.16
2023-03-01T08:54:24.367Z,101818.30
2023-03-01T08:56:56.608Z,101811.02
2023-03-01T08:59:30.939Z,101811.13
2023-03-01T09:02:03.300Z,101811.25
2023-03-01T09:04:35.690Z,101809.12
2023-03-01T09:07:08.301Z,101802.02
2023-03-01T09:09:41.360Z,101798.77
2023-03-01T09:12:14.134Z,101800.78
2023-03-01T09:14:46.349Z,101798.77
2023-03-01T09:17:18.701Z,101794.39
2023-03-01T09:19:51.162Z,101786.92
2023-03-01T09:22:23.386Z,101786.88
2023-03-01T09:24:55.543Z,101786.09
2023-03-01T09:27:27.769Z,101786.01
2023-03-01T09:30:00.019Z,101788.12
2023-03-01T09:32:34.000Z,101786.39
2023-03-01T09:35:07.124Z,101780.16
2023-03-01T09:37:40.784Z,101773.09
2023-03-01T09:40:18.598Z,101774.70
2023-03-01T09:43:09.771Z,101773.53
2023-03-01T09:45:47.144Z,101771.92
2023-03-01T09:48:24.625Z,101763.41
2023-03-01T09:50:58.646Z,101766.49
2023-03-01T09:53:36.285Z,101769.14
2023-03-01T09:56:20.250Z,101771.70
2023-03-01T09:58:58.453Z,101765.06
2023-03-01T10:01:36.417Z,101759.10
2023-03-01T10:04:37.652Z,101760.36
2023-03-01T10:07:24.758Z,101760.75
2023-03-01T10:09:57.362Z,101761.90
2023-03-01T10:12:35.406Z,101756.71
2023-03-01T10:15:14.283Z,101744.83
2023-03-01T10:17:53.645Z,101742.15
2023-03-01T10:20:27.972Z,101734.88
2023-03-01T10:23:00.176Z,101726.84
2023-03-01T10:25:50.441Z,101724.14
2023-03-01T10:28:33.199Z,101726.88
2023-03-01T10:31:08.591Z,101729.70
2023-03-01T10:33:43.207Z,101728.20
2023-03-01T10:36:15.548Z,101727.25
2023-03-01T10:38:57.999Z,101724.86
2023-03-01T10:41:31.596Z,101721.07
2023-03-01T10:44:04.476Z,101718.81
2023-03-01T10:46:38.985Z,101718.34
2023-03-01T10:49:18.350Z,101715.95
2023-03-01T10:51:53.336Z,101714.67
2023-03-01T10:54:30.242Z,101715.05
2023-03-01T10:57:05.235Z,101717.08
2023-03-01T10:59:38.882Z,101710.81
2023-03-01T11:02:30.259Z,101707.14
2023-03-01T11:05:22.087Z,101704.73
2023-03-01T11:07:56.299Z,101696.45
2023-03-01T11:10:30.495Z,101699.31
2023-03-01T11:13:17.922Z,101696.13
2023-03-01T11:16:03.086Z,101691.38
2023-03-01T11:18:47.029Z,101684.71
2023-03-01T11:21:20.522Z,101685.38
2023-03-01T11:23:53.618Z,101673.90
2023-03-01T11:26:26.402Z,101665.88
2023-03-01T11:29:02.891Z,101659.49
2023-03-01T11:31:35.955Z,101657.95
2023-03-01T11:34:14.768Z,101657.69
2023-03-01T11:36:54.916Z,101657.73
2023-03-01T11:39:33.364Z,101660.38
2023-03-01T11:42:19.051Z,101657.96
2023-03-01T11:44:52.073Z,101644.91
2023-03-01T11:47:40.975Z,101645.70
2023-03-01T11:50:21.998Z,101639.41
2023-03-01T11:53:04.074Z,101630.63
2023-03-01T11:55:48.972Z,101632.07
2023-03-01T11:58:35.673Z,101638.84
2023-03-01T12:01:26.548Z,101633.91
2023-03-01T12:04:28.786Z,101627.19
2023-03-01T12:07:10.509Z,101620.05
2023-03-01T12:10:02.267Z,101617.48
2023-03-01T12:12:47.671Z,101614.53
2023-03-01T12:15:41.634Z,101606.14
2023-03-01T12:18:45.716Z,101605.54
2023-03-01T12:21:30.827Z,101597.69
2023-03-01T12:24:25.906Z,101588.04
2023-03-01T12:27:17.205Z,101588.20
2023-03-01T12:29:56.346Z,101590.20
2023-03-01T12:32:50.051Z,101587.02
2023-03-01T12:35:38.384Z,101582.30
2023-03-01T12:38:23.469Z,101589.95
2023-03-01T12:41:22.261Z,101584.33
2023-03-01T12:44:07.104Z,101584.59
2023-03-01T12:46:53.848Z,101580.15
2023-03-01T12:49:30.601Z,101581.13
2023-03-01T12:52:12.981Z,101578.95
2023-03-01T12:54:46.880Z,101572.75
2023-03-01T12:57:28.470Z,101578.60
2023-03-01T13:00:20.434Z,101571.65
2023-03-01T13:03:01.286Z,101569.63
2023-03-01T13:05:41.944Z,101564.38
2023-03-01T13:08:22.201Z,101567.18
2023-03-01T13:10:59.059Z,101568.50
2023-03-01T13:13:32.673Z,101569.39
2023-03-01T13:16:41.526Z,101570.23
2023-03-01T13:19:18.243Z,101568.81
2023-03-01T13:21:51.745Z,101567.23
2023-03-01T13:24:41.194Z,101562.23
2023-03-01T13:27:30.403Z,101559.98
2023-03-01T13:30:07.399Z,101552.54
2023-03-01T13:32:44.727Z,101552.45
2023-03-01T13:35:47.086Z,101550.33
2023-03-01T13:38:48.099Z,101545.95
2023-03-01T13:41:45.541Z,101544.77
2023-03-01T13:44:27.494Z,101540.13
2023-03-01T13:47:05.835Z,101540.80
2023-03-01T13:49:47.774Z,101532.65
2023-03-01T13:52:40.442Z,101537.60
2023-03-01T13:55:25.877Z,101528.72
2023-03-01T13:58:01.702Z,101526.36
2023-03-01T14:00:39.414Z,101529.70
2023-03-01T14:03:17.448Z,101534.97
2023-03-01T14:06:14.561Z,101535.70
2023-03-01T14:08:50.538Z,101536.95
2023-03-01T14:12:05.418Z,101531.76
2023-03-01T14:14:47.805Z,101530.75
2023-03-01T14:17:48.195Z,101533.85
2023-03-01T14:20:25.106Z,101529.66
2023-03-01T14:23:00.857Z,101525.84
2023-03-01T14:25:36.737Z,101525.41
2023-03-01T14:28:15.800Z,101527.71
2023-03-01T14:30:49.820Z,101528.26
2023-03-01T14:33:27.700Z,101534.25
2023-03-01T14:36:05.407Z,101535.63
2023-03-01T14:38:39.526Z,101535.33
2023-03-01T14:41:16.835Z,101529.11
2023-03-01T14:43:52.522Z,101531.67
2023-03-01T14:46:30.028Z,101528.61
2023-03-01T14:49:07.475Z,101521.86
2023-03-01T14:51:44.508Z,101522.27
2023-03-01T14:54:26.871Z,101529.28
2023-03-01T14:57:04.352Z,101533.84
2023-03-01T14:59:37.230Z,101533.98
2023-03-01T15:02:18.418Z,101532.77
2023-03-01T15:04:54.263Z,101533.08
2023-03-01T15:07:28.906Z,101533.88
2023-03-01T15:10:01.946Z,101538.14
2023-03-01T15:12:44.830Z,101539.38
2023-03-01T15:15:38.310Z,101540.96
2023-03-01T15:18:19.834Z,101541.54
2023-03-01T15:20:53.251Z,101538.23
2023-03-01T15:23:28.728Z,101534.54
2023-03-01T15:26:01.666Z,101534.74
2023-03-01T15:28:36.520Z,101532.74
2023-03-01T15:31:20.849Z,101543.70
2023-03-01T15:33:54.082Z,101544.70
2023-03-01T15:36:44.675Z,101542.73
2023-03-01T15:39:38.631Z,101544.69
2023-03-01T15:42:13.894Z,101541.98
2023-03-01T15:44:47.003Z,101544.33
2023-03-01T15:47:32.714Z,101544.38
2023-03-01T15:50:05.460Z,101536.33
2023-03-01T15:52:44.129Z,101540.95
2023-03-01T15:55:21.563Z,101546.58
2023-03-01T15:58:01.651Z,101552.33
2023-03-01T16:00:33.982Z,101554.81
2023-03-01T16:03:06.481Z,101553.85
2023-03-01T16:05:40.210Z,101556.98
2023-03-01T16:08:12.540Z,101559.61
2023-03-01T16:10:45.936Z,101564.73
2023-03-01T16:13:18.853Z,101567.38
2023-03-01T16:15:51.306Z,101565.10
2023-03-01T16:18:23.660Z,101570.73
2023-03-01T16:20:56.284Z,101572.85
2023-03-01T16:23:28.664Z,101572.77
2023-03-01T16:26:04.302Z,101577.55
2023-03-01T16:28:36.681Z,101586.64
2023-03-01T16:31:13.118Z,101590.21
2023-03-01T16:33:50.617Z,101590.18
2023-03-01T16:36:29.297Z,101590.98
2023-03-01T16:39:04.351Z,101596.02
2023-03-01T16:41:36.755Z,101598.98
2023-03-01T16:44:09.355Z,101600.63
2023-03-01T16:46:43.999Z,101601.38
2023-03-01T16:49:16.404Z,101604.23
2023-03-01T16:51:50.210Z,101604.51
2023-03-01T16:54:22.523Z,101609.09
2023-03-01T16:56:54.909Z,101612.20
2023-03-01T16:59:27.226Z,101610.85
2023-03-01T17:01:59.911Z,101610.16
2023-03-01T17:04:32.263Z,101615.82
2023-03-01T17:07:04.695Z,101615.52
2023-03-01T17:09:39.987Z,101614.38
2023-03-01T17:12:14.000Z,101613.36
2023-03-01T17:14:47.622Z,101617.94
2023-03-01T17:17:21.023Z,101614.92
2023-03-01T17:19:53.986Z,101611.92
2023-03-01T17:22:26.346Z,101615.85
2023-03-01T17:24:58.675Z,101610.72
2023-03-01T17:27:35.713Z,101609.70
2023-03-01T17:30:11.673Z,101608.02
2023-03-01T17:32:42.686Z,101608.66
2023-03-01T17:35:15.120Z,101611.24
2023-03-01T17:37:47.596Z,101609.39
2023-03-01T17:40:20.470Z,101611.43
2023-03-01T17:42:52.847Z,101614.41
2023-03-01T17:45:25.191Z,101614.11
2023-03-01T17:47:57.673Z,101614.23
2023-03-01T17:50:30.097Z,101605.06
2023-03-01T17:53:07.715Z,101606.13
2023-03-01T17:55:43.707Z,101607.16
2023-03-01T17:58:22.817Z,101611.12
2023-03-01T18:00:55.296Z,101611.82
2023-03-01T18:03:27.691Z,101609.02
2023-03-01T18:05:59.958Z,101606.73
2023-03-01T18:08:32.287Z,101609.65
2023-03-01T18:11:04.610Z,101612.35
2023-03-01T18:13:37.472Z,101611.76
2023-03-01T18:16:12.854Z,101612.30
2023-03-01T18:18:46.385Z,101613.02
2023-03-01T18:21:18.797Z,101608.93
2023-03-01T18:23:51.423Z,101611.61
2023-03-01T18:26:25.311Z,101610.02
2023-03-01T18:29:01.394Z,101603.06
2023-03-01T18:31:34.601Z,101599.38
2023-03-01T18:34:07.335Z,101598.27
2023-03-01T18:36:41.668Z,101596.80
2023-03-01T18:39:17.977Z,101592.52
2023-03-01T18:41:50.512Z,101591.77
2023-03-01T18:44:23.056Z,101590.95
2023-03-01T18:46:57.244Z,101589.33
2023-03-01T18:49:29.620Z,101587.95
2023-03-01T18:52:02.076Z,101584.67
2023-03-01T18:54:36.134Z,101586.11
2023-03-01T18:57:08.565Z,101584.45
2023-03-01T18:59:41.626Z,101582.17
2023-03-01T19:02:15.980Z,101584.54
2023-03-01T19:04:50.897Z,101581.70
2023-03-01T19:07:23.562Z,101583.13
2023-03-01T19:09:55.835Z,101584.23
2023-03-01T19:12:28.717Z,101589.35
2023-03-01T19:15:01.026Z,101585.46
2023-03-01T19:17:33.843Z,101581.98
2023-03-01T19:20:07.292Z,101581.69
2023-03-01T19:22:39.853Z,101581.98
2023-03-01T19:25:13.304Z,101578.36
2023-03-01T19:27:45.688Z,101580.88
2023-03-01T19:30:18.836Z,101581.48
2023-03-01T19:32:52.416Z,101582.34
2023-03-01T19:35:24.706Z,101583.55
2023-03-01T19:37:57.329Z,101585.36
2023-03-01T19:40:29.619Z,101582.07
2023-03-01T19:43:01.961Z,101574.08
2023-03-01T19:45:35.873Z,101572.39
2023-03-01T19:48:08.983Z,101570.23
2023-03-01T19:50:45.358Z,101568.65
2023-03-01T19:53:18.285Z,101566.34
2023-03-01T19:55:53.192Z,101562.92
2023-03-01T19:58:25.562Z,101560.39
2023-03-01T20:00:59.022Z,101559.30
2023-03-01T20:03:33.637Z,101557.86
2023-03-01T20:06:12.355Z,101557.41
2023-03-01T20:08:45.497Z,101561.80
2023-03-01T20:11:19.636Z,101560.11
2023-03-01T20:13:51.993Z,101561.73
2023-03-01T20:16:26.914Z,101567.77
2023-03-01T20:19:01.137Z,101569.55
2023-03-01T20:21:34.446Z,101568.15
2023-03-01T20:24:07.258Z,101574.63
2023-03-01T20:26:41.188Z,101576.42
2023-03-01T20:29:13.886Z,101575.73
2023-03-01T20:31:46.249Z,101579.48
2023-03-01T20:34:18.812Z,101588.23
2023-03-01T20:36:51.050Z,101591.96
2023-03-01T20:39:23.499Z,101593.76
2023-03-01T20:41:55.847Z,101598.80
2023-03-01T20:44:28.144Z,101593.89
2023-03-01T20:47:00.751Z,101590.02
2023-03-01T20:49:33.082Z,101585.69
2023-03-01T20:52:05.966Z,101583.98
2023-03-01T20:54:38.838Z,101581.02
2023-03-01T20:57:11.090Z,101578.59
2023-03-01T20:59:43.965Z,101584.96
2023-03-01T21:02:16.999Z,101587.98
2023-03-01T21:04:49.343Z,101588.08
2023-03-01T21:07:21.692Z,101598.36
2023-03-01T21:09:54.390Z,101598.55
2023-03-01T21:12:26.730Z,101601.40
2023-03-01T21:14:59.054Z,101591.60
2023-03-01T21:17:31.322Z,101602.79
2023-03-01T21:20:04.694Z,101598.88
2023-03-01T21:22:37.144Z,101602.23
2023-03-01T21:25:10.174Z,101600.08
2023-03-01T21:27:42.774Z,101597.38
2023-03-01T21:30:17.169Z,101587.51
2023-03-01T21:32:49.615Z,101588.55
2023-03-01T21:35:22.034Z,101586.98
2023-03-01T21:37:54.402Z,101584.31
2023-03-01T21:40:26.701Z,101589.16
2023-03-01T21:42:59.358Z,101588.44
2023-03-01T21:45:32.215Z,101587.50
2023-03-01T21:48:04.856Z,101589.69
2023-03-01T21:50:37.151Z,101592.38
2023-03-01T21:53:10.209Z,101589.55
2023-03-01T21:55:49.860Z,101589.77
2023-03-01T21:58:22.504Z,101588.48
2023-03-01T22:00:55.434Z,101592.36
2023-03-01T22:03:28.073Z,101589.64
2023-03-01T22:06:02.206Z,101591.39
2023-03-01T22:08:34.435Z,101591.86
2023-03-01T22:11:06.974Z,101588.31
2023-03-01T22:13:39.499Z,101581.09
2023-03-01T22:16:12.203Z,101588.61
2023-03-01T22:18:49.372Z,101589.64
2023-03-01T22:21:23.660Z,101591.32
2023-03-01T22:23:57.171Z,101590.60
2023-03-01T22:26:31.686Z,101586.98
2023-03-01T22:29:08.033Z,101588.73
2023-03-01T22:31:41.498Z,101587.51
2023-03-01T22:34:15.071Z,101590.36
2023-03-01T22:36:47.836Z,101587.08
2023-03-01T22:39:22.182Z,101587.56
2023-03-01T22:41:57.132Z,101594.39
2023-03-01T22:44:29.340Z,101596.46
2023-03-01T22:47:01.579Z,101600.71
2023-03-01T22:49:33.860Z,101604.58
2023-03-01T22:52:06.425Z,101605.98
2023-03-01T22:54:38.836Z,101606.78
2023-03-01T22:57:11.184Z,101606.20
2023-03-01T22:59:43.494Z,101607.34
2023-03-01T23:02:15.784Z,101606.61
2023-03-01T23:04:48.556Z,101612.48
2023-03-01T23:07:20.919Z,101609.39
2023-03-01T23:09:53.277Z,101615.16
2023-03-01T23:12:25.497Z,101612.17
2023-03-01T23:14:57.918Z,101608.92
2023-03-01T23:17:30.220Z,101613.08
2023-03-01T23:20:06.483Z,101611.69
2023-03-01T23:22:39.269Z,101615.48
2023-03-01T23:25:13.564Z,101615.98
2023-03-01T23:27:45.839Z,101615.48
2023-03-01T23:30:18.498Z,101613.52
2023-03-01T23:32:50.829Z,101611.77
2023-03-01T23:35:23.171Z,101612.52
2023-03-01T23:37:55.566Z,101614.33
2023-03-01T23:40:27.811Z,101610.16
2023-03-01T23:43:00.102Z,101614.58
2023-03-01T23:45:32.451Z,101609.88
2023-03-01T23:48:04.909Z,101611.12
2023-03-01T23:50:41.952Z,101614.77
2023-03-01T23:53:17.112Z,101609.19
2023-03-01T23:55:52.488Z,101606.91
2023-03-01T23:58:28.810Z,101605.63
